sensor_id;sensor_type;location;lat;lon;timestamp;P1;durP1;ratioP1;P2;durP2;ratioP2
45077;SDS011;60508;42.622;25.416;2023-02-28T00:01:03;14.18;;;7.40;;
45077;SDS011;60508;42.622;25.416;2023-02-28T00:03:29;11.15;;;6.47;;
45077;SDS011;60508;42.622;25.416;2023-02-28T00:05:56;19.38;;;8.15;;
45077;SDS011;60508;42.622;25.416;2023-02-28T00:08:22;14.85;;;6.35;;
45077;SDS011;60508;42.622;25.416;2023-02-28T00:10:48;12.85;;;7.40;;
45077;SDS011;60508;42.622;25.416;2023-02-28T00:13:14;13.75;;;6.88;;
45077;SDS011;60508;42.622;25.416;2023-02-28T00:15:40;36.22;;;8.43;;
45077;SDS011;60508;42.622;25.416;2023-02-28T00:18:06;13.18;;;8.02;;
45077;SDS011;60508;42.622;25.416;2023-02-28T00:20:32;15.68;;;7.18;;
45077;SDS011;60508;42.622;25.416;2023-02-28T00:22:58;16.27;;;7.35;;
45077;SDS011;60508;42.622;25.416;2023-02-28T00:25:25;14.25;;;7.57;;
45077;SDS011;60508;42.622;25.416;2023-02-28T00:27:51;15.82;;;6.88;;
45077;SDS011;60508;42.622;25.416;2023-02-28T00:30:18;13.13;;;7.82;;
45077;SDS011;60508;42.622;25.416;2023-02-28T00:32:49;12.27;;;7.63;;
45077;SDS011;60508;42.622;25.416;2023-02-28T00:35:16;10.05;;;6.78;;
45077;SDS011;60508;42.622;25.416;2023-02-28T00:37:43;20.60;;;7.72;;
45077;SDS011;60508;42.622;25.416;2023-02-28T00:40:08;13.95;;;8.05;;
45077;SDS011;60508;42.622;25.416;2023-02-28T00:42:36;13.27;;;7.30;;
45077;SDS011;60508;42.622;25.416;2023-02-28T00:45:03;10.63;;;7.72;;
45077;SDS011;60508;42.622;25.416;2023-02-28T00:47:33;19.90;;;8.50;;
45077;SDS011;60508;42.622;25.416;2023-02-28T00:49:59;13.43;;;8.07;;
45077;SDS011;60508;42.622;25.416;2023-02-28T00:52:26;17.45;;;8.93;;
45077;SDS011;60508;42.622;25.416;2023-02-28T00:54:54;19.35;;;8.85;;
45077;SDS011;60508;42.622;25.416;2023-02-28T00:57:20;17.52;;;8.85;;
45077;SDS011;60508;42.622;25.416;2023-02-28T00:59:47;30.77;;;8.30;;
45077;SDS011;60508;42.622;25.416;2023-02-28T01:02:13;15.25;;;8.45;;
45077;SDS011;60508;42.622;25.416;2023-02-28T01:04:39;15.73;;;9.05;;
45077;SDS011;60508;42.622;25.416;2023-02-28T01:07:06;16.55;;;8.68;;
45077;SDS011;60508;42.622;25.416;2023-02-28T01:09:31;19.55;;;9.20;;
45077;SDS011;60508;42.622;25.416;2023-02-28T01:11:58;14.13;;;8.27;;
45077;SDS011;60508;42.622;25.416;2023-02-28T01:14:24;13.27;;;7.00;;
45077;SDS011;60508;42.622;25.416;2023-02-28T01:16:50;18.35;;;8.25;;
45077;SDS011;60508;42.622;25.416;2023-02-28T01:19:17;9.18;;;7.60;;
45077;SDS011;60508;42.622;25.416;2023-02-28T01:21:43;15.10;;;7.68;;
45077;SDS011;60508;42.622;25.416;2023-02-28T01:24:11;16.60;;;8.60;;
45077;SDS011;60508;42.622;25.416;2023-02-28T01:26:38;14.75;;;8.38;;
45077;SDS011;60508;42.622;25.416;2023-02-28T01:29:06;11.05;;;7.80;;
45077;SDS011;60508;42.622;25.416;2023-02-28T01:31:32;10.35;;;7.35;;
45077;SDS011;60508;42.622;25.416;2023-02-28T01:33:58;14.43;;;7.35;;
45077;SDS011;60508;42.622;25.416;2023-02-28T01:36:27;21.50;;;8.57;;
45077;SDS011;60508;42.622;25.416;2023-02-28T01:38:54;23.85;;;9.32;;
45077;SDS011;60508;42.622;25.416;2023-02-28T01:41:22;11.93;;;8.30;;
45077;SDS011;60508;42.622;25.416;2023-02-28T01:43:57;13.05;;;7.53;;
45077;SDS011;60508;42.622;25.416;2023-02-28T01:46:25;19.67;;;8.10;;
45077;SDS011;60508;42.622;25.416;2023-02-28T01:54:01;12.32;;;7.82;;
45077;SDS011;60508;42.622;25.416;2023-02-28T01:56:32;15.93;;;7.45;;
45077;SDS011;60508;42.622;25.416;2023-02-28T01:59:01;21.58;;;7.72;;
45077;SDS011;60508;42.622;25.416;2023-02-28T02:01:28;7.03;;;6.10;;
45077;SDS011;60508;42.622;25.416;2023-02-28T02:03:57;13.05;;;7.45;;
45077;SDS011;60508;42.622;25.416;2023-02-28T02:06:25;14.90;;;8.30;;
45077;SDS011;60508;42.622;25.416;2023-02-28T02:08:55;12.80;;;6.65;;
45077;SDS011;60508;42.622;25.416;2023-02-28T02:11:22;14.77;;;7.82;;
45077;SDS011;60508;42.622;25.416;2023-02-28T02:29:25;12.13;;;8.07;;
45077;SDS011;60508;42.622;25.416;2023-02-28T02:34:26;12.40;;;7.65;;
45077;SDS011;60508;42.622;25.416;2023-02-28T02:42:46;16.43;;;7.70;;
45077;SDS011;60508;42.622;25.416;2023-02-28T02:45:37;11.82;;;7.38;;
45077;SDS011;60508;42.622;25.416;2023-02-28T02:48:09;13.07;;;8.55;;
45077;SDS011;60508;42.622;25.416;2023-02-28T02:50:39;15.07;;;8.25;;
45077;SDS011;60508;42.622;25.416;2023-02-28T02:53:10;11.10;;;7.60;;
45077;SDS011;60508;42.622;25.416;2023-02-28T02:55:41;14.57;;;8.52;;
45077;SDS011;60508;42.622;25.416;2023-02-28T02:58:16;11.55;;;8.43;;
45077;SDS011;60508;42.622;25.416;2023-02-28T03:00:47;12.93;;;9.57;;
45077;SDS011;60508;42.622;25.416;2023-02-28T03:03:17;12.80;;;9.55;;
45077;SDS011;60508;42.622;25.416;2023-02-28T03:05:59;12.57;;;8.90;;
45077;SDS011;60508;42.622;25.416;2023-02-28T03:08:27;14.30;;;9.38;;
45077;SDS011;60508;42.622;25.416;2023-02-28T03:10:56;17.35;;;10.15;;
45077;SDS011;60508;42.622;25.416;2023-02-28T03:30:30;19.38;;;11.05;;
45077;SDS011;60508;42.622;25.416;2023-02-28T03:33:01;14.73;;;10.93;;
45077;SDS011;60508;42.622;25.416;2023-02-28T03:35:43;17.98;;;12.02;;
45077;SDS011;60508;42.622;25.416;2023-02-28T03:40:51;21.27;;;10.13;;
45077;SDS011;60508;42.622;25.416;2023-02-28T03:43:25;14.98;;;10.30;;
45077;SDS011;60508;42.622;25.416;2023-02-28T03:45:58;18.75;;;11.57;;
45077;SDS011;60508;42.622;25.416;2023-02-28T03:48:31;21.80;;;11.48;;
45077;SDS011;60508;42.622;25.416;2023-02-28T03:51:02;24.02;;;13.20;;
45077;SDS011;60508;42.622;25.416;2023-02-28T03:53:32;20.33;;;12.95;;
45077;SDS011;60508;42.622;25.416;2023-02-28T03:56:07;28.33;;;13.27;;
45077;SDS011;60508;42.622;25.416;2023-02-28T03:58:51;19.23;;;13.90;;
45077;SDS011;60508;42.622;25.416;2023-02-28T04:01:28;23.75;;;13.00;;
45077;SDS011;60508;42.622;25.416;2023-02-28T04:03:59;23.00;;;14.50;;
45077;SDS011;60508;42.622;25.416;2023-02-28T04:06:25;21.52;;;13.95;;
45077;SDS011;60508;42.622;25.416;2023-02-28T04:08:51;24.48;;;12.57;;
45077;SDS011;60508;42.622;25.416;2023-02-28T04:11:30;13.90;;;12.32;;
45077;SDS011;60508;42.622;25.416;2023-02-28T04:14:01;17.85;;;12.35;;
45077;SDS011;60508;42.622;25.416;2023-02-28T04:16:33;29.92;;;14.35;;
45077;SDS011;60508;42.622;25.416;2023-02-28T04:19:04;17.98;;;11.18;;
45077;SDS011;60508;42.622;25.416;2023-02-28T04:21:33;26.52;;;11.32;;
45077;SDS011;60508;42.622;25.416;2023-02-28T04:24:02;19.75;;;12.80;;
45077;SDS011;60508;42.622;25.416;2023-02-28T04:26:35;20.40;;;11.68;;
45077;SDS011;60508;42.622;25.416;2023-02-28T04:29:03;25.65;;;12.57;;
45077;SDS011;60508;42.622;25.416;2023-02-28T04:31:31;17.25;;;11.55;;
45077;SDS011;60508;42.622;25.416;2023-02-28T04:33:59;27.45;;;12.75;;
45077;SDS011;60508;42.622;25.416;2023-02-28T04:36:26;18.45;;;10.85;;
45077;SDS011;60508;42.622;25.416;2023-02-28T04:38:52;18.08;;;12.38;;
45077;SDS011;60508;42.622;25.416;2023-02-28T04:41:19;16.98;;;11.43;;
45077;SDS011;60508;42.622;25.416;2023-02-28T04:43:45;31.38;;;12.60;;
45077;SDS011;60508;42.622;25.416;2023-02-28T04:46:11;19.05;;;11.40;;
45077;SDS011;60508;42.622;25.416;2023-02-28T04:48:38;17.20;;;11.88;;
45077;SDS011;60508;42.622;25.416;2023-02-28T04:51:08;19.80;;;12.32;;
45077;SDS011;60508;42.622;25.416;2023-02-28T04:53:36;21.25;;;12.38;;
45077;SDS011;60508;42.622;25.416;2023-02-28T04:56:05;23.33;;;13.10;;
45077;SDS011;60508;42.622;25.416;2023-02-28T04:58:32;17.00;;;11.88;;
45077;SDS011;60508;42.622;25.416;2023-02-28T05:03:48;18.50;;;11.00;;
45077;SDS011;60508;42.622;25.416;2023-02-28T05:06:15;21.38;;;12.00;;
45077;SDS011;60508;42.622;25.416;2023-02-28T05:08:41;22.73;;;13.77;;
45077;SDS011;60508;42.622;25.416;2023-02-28T05:11:41;25.90;;;13.00;;
45077;SDS011;60508;42.622;25.416;2023-02-28T05:14:04;19.60;;;12.00;;
45077;SDS011;60508;42.622;25.416;2023-02-28T05:16:32;24.23;;;15.07;;
45077;SDS011;60508;42.622;25.416;2023-02-28T05:18:58;27.20;;;16.83;;
45077;SDS011;60508;42.622;25.416;2023-02-28T05:21:31;23.52;;;14.90;;
45077;SDS011;60508;42.622;25.416;2023-02-28T05:24:01;24.95;;;14.55;;
45077;SDS011;60508;42.622;25.416;2023-02-28T05:26:28;25.67;;;16.48;;
45077;SDS011;60508;42.622;25.416;2023-02-28T05:28:54;24.63;;;15.65;;
45077;SDS011;60508;42.622;25.416;2023-02-28T05:31:21;27.17;;;17.00;;
45077;SDS011;60508;42.622;25.416;2023-02-28T05:33:48;26.85;;;16.25;;
45077;SDS011;60508;42.622;25.416;2023-02-28T05:36:14;29.13;;;17.25;;
45077;SDS011;60508;42.622;25.416;2023-02-28T05:38:40;28.23;;;17.83;;
45077;SDS011;60508;42.622;25.416;2023-02-28T05:41:09;36.33;;;19.40;;
45077;SDS011;60508;42.622;25.416;2023-02-28T05:43:36;39.33;;;19.30;;
45077;SDS011;60508;42.622;25.416;2023-02-28T05:46:04;31.20;;;18.23;;
45077;SDS011;60508;42.622;25.416;2023-02-28T05:48:32;32.25;;;18.63;;
45077;SDS011;60508;42.622;25.416;2023-02-28T05:50:59;34.97;;;19.23;;
45077;SDS011;60508;42.622;25.416;2023-02-28T05:53:26;34.72;;;19.23;;
45077;SDS011;60508;42.622;25.416;2023-02-28T05:55:52;32.00;;;20.05;;
45077;SDS011;60508;42.622;25.416;2023-02-28T05:58:19;32.88;;;19.63;;
45077;SDS011;60508;42.622;25.416;2023-02-28T06:00:45;36.63;;;19.02;;
45077;SDS011;60508;42.622;25.416;2023-02-28T06:03:11;30.33;;;18.05;;
45077;SDS011;60508;42.622;25.416;2023-02-28T06:05:37;30.70;;;17.90;;
45077;SDS011;60508;42.622;25.416;2023-02-28T06:08:04;32.70;;;18.60;;
45077;SDS011;60508;42.622;25.416;2023-02-28T06:10:33;34.72;;;20.00;;
45077;SDS011;60508;42.622;25.416;2023-02-28T06:13:03;32.20;;;21.20;;
45077;SDS011;60508;42.622;25.416;2023-02-28T06:15:30;24.88;;;16.42;;
45077;SDS011;60508;42.622;25.416;2023-02-28T06:17:56;26.38;;;18.98;;
45077;SDS011;60508;42.622;25.416;2023-02-28T06:20:23;26.77;;;16.27;;
45077;SDS011;60508;42.622;25.416;2023-02-28T06:22:50;25.88;;;16.70;;
45077;SDS011;60508;42.622;25.416;2023-02-28T06:25:16;33.08;;;18.08;;
45077;SDS011;60508;42.622;25.416;2023-02-28T06:27:44;33.25;;;19.55;;
45077;SDS011;60508;42.622;25.416;2023-02-28T06:30:10;30.70;;;17.80;;
45077;SDS011;60508;42.622;25.416;2023-02-28T06:32:37;26.17;;;17.75;;
45077;SDS011;60508;42.622;25.416;2023-02-28T06:35:04;29.63;;;19.35;;
45077;SDS011;60508;42.622;25.416;2023-02-28T06:37:31;29.00;;;18.38;;
45077;SDS011;60508;42.622;25.416;2023-02-28T06:39:57;31.92;;;20.48;;
45077;SDS011;60508;42.622;25.416;2023-02-28T06:42:24;32.72;;;20.35;;
45077;SDS011;60508;42.622;25.416;2023-02-28T06:44:54;32.00;;;18.45;;
45077;SDS011;60508;42.622;25.416;2023-02-28T06:47:23;33.40;;;17.10;;
45077;SDS011;60508;42.622;25.416;2023-02-28T06:49:50;31.40;;;15.30;;
45077;SDS011;60508;42.622;25.416;2023-02-28T06:52:16;20.67;;;14.15;;
45077;SDS011;60508;42.622;25.416;2023-02-28T06:54:41;25.15;;;13.73;;
45077;SDS011;60508;42.622;25.416;2023-02-28T06:57:08;23.02;;;12.00;;
45077;SDS011;60508;42.622;25.416;2023-02-28T06:59:34;16.35;;;12.13;;
45077;SDS011;60508;42.622;25.416;2023-02-28T07:02:00;17.02;;;11.90;;
45077;SDS011;60508;42.622;25.416;2023-02-28T07:04:28;21.70;;;12.77;;
45077;SDS011;60508;42.622;25.416;2023-02-28T07:06:54;16.95;;;10.85;;
45077;SDS011;60508;42.622;25.416;2023-02-28T07:09:22;21.05;;;12.48;;
45077;SDS011;60508;42.622;25.416;2023-02-28T07:11:49;18.45;;;11.25;;
45077;SDS011;60508;42.622;25.416;2023-02-28T07:14:15;16.95;;;9.60;;
45077;SDS011;60508;42.622;25.416;2023-02-28T07:16:41;18.70;;;10.05;;
45077;SDS011;60508;42.622;25.416;2023-02-28T07:19:08;18.63;;;11.30;;
45077;SDS011;60508;42.622;25.416;2023-02-28T07:21:34;15.05;;;10.73;;
45077;SDS011;60508;42.622;25.416;2023-02-28T07:24:00;15.43;;;9.57;;
45077;SDS011;60508;42.622;25.416;2023-02-28T07:26:26;15.20;;;9.68;;
45077;SDS011;60508;42.622;25.416;2023-02-28T07:28:53;18.80;;;10.50;;
45077;SDS011;60508;42.622;25.416;2023-02-28T07:31:19;23.73;;;11.43;;
45077;SDS011;60508;42.622;25.416;2023-02-28T07:33:45;18.27;;;10.50;;
45077;SDS011;60508;42.622;25.416;2023-02-28T07:36:13;22.23;;;10.90;;
45077;SDS011;60508;42.622;25.416;2023-02-28T07:38:44;16.70;;;8.30;;
45077;SDS011;60508;42.622;25.416;2023-02-28T07:41:14;17.08;;;8.57;;
45077;SDS011;60508;42.622;25.416;2023-02-28T07:43:41;11.55;;;7.95;;
45077;SDS011;60508;42.622;25.416;2023-02-28T07:46:08;18.40;;;8.65;;
45077;SDS011;60508;42.622;25.416;2023-02-28T07:48:36;21.17;;;10.48;;
45077;SDS011;60508;42.622;25.416;2023-02-28T07:51:02;22.65;;;12.02;;
45077;SDS011;60508;42.622;25.416;2023-02-28T07:53:28;26.85;;;14.20;;
45077;SDS011;60508;42.622;25.416;2023-02-28T07:55:55;29.75;;;13.43;;
45077;SDS011;60508;42.622;25.416;2023-02-28T07:58:23;24.55;;;14.43;;
45077;SDS011;60508;42.622;25.416;2023-02-28T08:00:50;21.85;;;13.82;;
45077;SDS011;60508;42.622;25.416;2023-02-28T08:03:20;31.13;;;14.23;;
45077;SDS011;60508;42.622;25.416;2023-02-28T08:05:47;26.13;;;12.73;;
45077;SDS011;60508;42.622;25.416;2023-02-28T08:08:14;21.40;;;11.10;;
45077;SDS011;60508;42.622;25.416;2023-02-28T08:10:41;25.88;;;10.95;;
45077;SDS011;60508;42.622;25.416;2023-02-28T08:13:07;19.40;;;10.85;;
45077;SDS011;60508;42.622;25.416;2023-02-28T08:15:33;37.90;;;10.98;;
45077;SDS011;60508;42.622;25.416;2023-02-28T08:18:00;36.13;;;10.68;;
45077;SDS011;60508;42.622;25.416;2023-02-28T08:20:26;41.97;;;10.73;;
45077;SDS011;60508;42.622;25.416;2023-02-28T08:22:52;28.45;;;10.70;;
45077;SDS011;60508;42.622;25.416;2023-02-28T08:25:19;25.45;;;10.55;;
45077;SDS011;60508;42.622;25.416;2023-02-28T08:27:45;31.75;;;11.40;;
45077;SDS011;60508;42.622;25.416;2023-02-28T08:30:12;21.25;;;9.73;;
45077;SDS011;60508;42.622;25.416;2023-02-28T08:32:39;27.75;;;9.88;;
45077;SDS011;60508;42.622;25.416;2023-02-28T08:35:06;35.58;;;10.02;;
45077;SDS011;60508;42.622;25.416;2023-02-28T08:37:34;29.27;;;11.23;;
45077;SDS011;60508;42.622;25.416;2023-02-28T08:40:01;27.15;;;11.13;;
45077;SDS011;60508;42.622;25.416;2023-02-28T08:42:26;27.85;;;10.20;;
45077;SDS011;60508;42.622;25.416;2023-02-28T08:44:52;21.88;;;8.57;;
45077;SDS011;60508;42.622;25.416;2023-02-28T08:47:19;25.58;;;9.23;;
45077;SDS011;60508;42.622;25.416;2023-02-28T08:49:46;18.20;;;9.38;;
45077;SDS011;60508;42.622;25.416;2023-02-28T08:52:12;28.30;;;8.13;;
45077;SDS011;60508;42.622;25.416;2023-02-28T08:54:39;24.00;;;8.25;;
45077;SDS011;60508;42.622;25.416;2023-02-28T08:57:07;29.77;;;10.00;;
45077;SDS011;60508;42.622;25.416;2023-02-28T08:59:33;17.77;;;8.50;;
45077;SDS011;60508;42.622;25.416;2023-02-28T09:01:58;23.40;;;8.57;;
45077;SDS011;60508;42.622;25.416;2023-02-28T09:04:25;25.02;;;9.02;;
45077;SDS011;60508;42.622;25.416;2023-02-28T09:06:51;22.70;;;8.23;;
45077;SDS011;60508;42.622;25.416;2023-02-28T09:09:18;25.20;;;9.32;;
45077;SDS011;60508;42.622;25.416;2023-02-28T09:11:43;18.25;;;8.13;;
45077;SDS011;60508;42.622;25.416;2023-02-28T09:14:10;25.95;;;9.27;;
45077;SDS011;60508;42.622;25.416;2023-02-28T09:16:36;21.25;;;8.25;;
45077;SDS011;60508;42.622;25.416;2023-02-28T09:19:01;34.40;;;8.75;;
45077;SDS011;60508;42.622;25.416;2023-02-28T09:21:27;18.05;;;8.27;;
45077;SDS011;60508;42.622;25.416;2023-02-28T09:23:54;14.48;;;8.38;;
45077;SDS011;60508;42.622;25.416;2023-02-28T09:26:24;23.90;;;9.38;;
45077;SDS011;60508;42.622;25.416;2023-02-28T09:28:51;24.13;;;9.43;;
45077;SDS011;60508;42.622;25.416;2023-02-28T09:31:20;20.35;;;9.20;;
45077;SDS011;60508;42.622;25.416;2023-02-28T09:33:48;17.10;;;7.65;;
45077;SDS011;60508;42.622;25.416;2023-02-28T09:36:16;15.83;;;7.90;;
45077;SDS011;60508;42.622;25.416;2023-02-28T09:38:43;27.33;;;9.55;;
45077;SDS011;60508;42.622;25.416;2023-02-28T09:41:18;23.23;;;7.68;;
45077;SDS011;60508;42.622;25.416;2023-02-28T09:43:52;19.98;;;8.60;;
45077;SDS011;60508;42.622;25.416;2023-02-28T09:48:54;21.50;;;9.35;;
45077;SDS011;60508;42.622;25.416;2023-02-28T09:54:11;22.65;;;9.48;;
45077;SDS011;60508;42.622;25.416;2023-02-28T09:56:45;30.42;;;11.10;;
45077;SDS011;60508;42.622;25.416;2023-02-28T09:59:29;20.98;;;8.00;;
45077;SDS011;60508;42.622;25.416;2023-02-28T10:10:29;19.85;;;10.70;;
45077;SDS011;60508;42.622;25.416;2023-02-28T10:12:56;22.80;;;9.50;;
45077;SDS011;60508;42.622;25.416;2023-02-28T10:15:27;20.55;;;10.13;;
45077;SDS011;60508;42.622;25.416;2023-02-28T10:17:57;28.50;;;12.00;;
45077;SDS011;60508;42.622;25.416;2023-02-28T10:20:27;21.42;;;11.35;;
45077;SDS011;60508;42.622;25.416;2023-02-28T10:25:33;28.30;;;12.55;;
45077;SDS011;60508;42.622;25.416;2023-02-28T10:30:36;26.90;;;12.32;;
45077;SDS011;60508;42.622;25.416;2023-02-28T10:33:19;33.45;;;12.80;;
45077;SDS011;60508;42.622;25.416;2023-02-28T10:35:48;25.70;;;11.90;;
45077;SDS011;60508;42.622;25.416;2023-02-28T10:38:16;25.50;;;12.13;;
45077;SDS011;60508;42.622;25.416;2023-02-28T10:40:47;31.02;;;12.25;;
45077;SDS011;60508;42.622;25.416;2023-02-28T10:45:39;28.00;;;11.52;;
45077;SDS011;60508;42.622;25.416;2023-02-28T10:59:21;32.08;;;12.50;;
45077;SDS011;60508;42.622;25.416;2023-02-28T11:01:22;30.50;;;11.70;;
45077;SDS011;60508;42.622;25.416;2023-02-28T11:04:16;28.50;;;15.05;;
45077;SDS011;60508;42.622;25.416;2023-02-28T11:06:45;33.57;;;13.43;;
45077;SDS011;60508;42.622;25.416;2023-02-28T11:09:20;33.22;;;12.98;;
45077;SDS011;60508;42.622;25.416;2023-02-28T11:11:50;27.70;;;12.60;;
45077;SDS011;60508;42.622;25.416;2023-02-28T11:14:19;28.38;;;12.73;;
45077;SDS011;60508;42.622;25.416;2023-02-28T11:19:19;25.65;;;11.10;;
45077;SDS011;60508;42.622;25.416;2023-02-28T11:22:02;31.60;;;11.77;;
45077;SDS011;60508;42.622;25.416;2023-02-28T11:24:35;44.95;;;13.82;;
45077;SDS011;60508;42.622;25.416;2023-02-28T11:27:11;28.23;;;12.05;;
45077;SDS011;60508;42.622;25.416;2023-02-28T11:30:30;23.20;;;12.88;;
45077;SDS011;60508;42.622;25.416;2023-02-28T11:33:23;33.55;;;15.65;;
45077;SDS011;60508;42.622;25.416;2023-02-28T11:35:55;26.23;;;13.07;;
45077;SDS011;60508;42.622;25.416;2023-02-28T11:38:26;29.48;;;12.90;;
45077;SDS011;60508;42.622;25.416;2023-02-28T11:43:37;27.95;;;13.30;;
45077;SDS011;60508;42.622;25.416;2023-02-28T11:51:31;26.95;;;13.93;;
45077;SDS011;60508;42.622;25.416;2023-02-28T12:00:00;24.85;;;9.23;;
45077;SDS011;60508;42.622;25.416;2023-02-28T12:02:59;32.03;;;10.60;;
45077;SDS011;60508;42.622;25.416;2023-02-28T12:05:45;23.02;;;10.82;;
45077;SDS011;60508;42.622;25.416;2023-02-28T12:13:56;28.35;;;11.50;;
45077;SDS011;60508;42.622;25.416;2023-02-28T12:27:01;34.75;;;12.07;;
45077;SDS011;60508;42.622;25.416;2023-02-28T12:32:24;24.00;;;11.85;;
45077;SDS011;60508;42.622;25.416;2023-02-28T12:38:01;34.50;;;13.23;;
45077;SDS011;60508;42.622;25.416;2023-02-28T12:40:55;31.02;;;12.27;;
45077;SDS011;60508;42.622;25.416;2023-02-28T12:48:46;27.38;;;12.77;;
45077;SDS011;60508;42.622;25.416;2023-02-28T12:51:22;20.95;;;11.68;;
45077;SDS011;60508;42.622;25.416;2023-02-28T12:56:48;24.40;;;11.82;;
45077;SDS011;60508;42.622;25.416;2023-02-28T12:59:54;30.13;;;11.00;;
45077;SDS011;60508;42.622;25.416;2023-02-28T13:10:38;34.40;;;13.55;;
45077;SDS011;60508;42.622;25.416;2023-02-28T13:13:04;24.48;;;10.73;;
45077;SDS011;60508;42.622;25.416;2023-02-28T13:15:31;30.65;;;10.55;;
45077;SDS011;60508;42.622;25.416;2023-02-28T13:18:00;24.98;;;10.25;;
45077;SDS011;60508;42.622;25.416;2023-02-28T13:20:47;21.13;;;12.25;;
45077;SDS011;60508;42.622;25.416;2023-02-28T13:24:32;23.52;;;9.57;;
45077;SDS011;60508;42.622;25.416;2023-02-28T13:26:16;21.25;;;9.38;;
45077;SDS011;60508;42.622;25.416;2023-02-28T13:31:19;26.02;;;11.13;;
45077;SDS011;60508;42.622;25.416;2023-02-28T13:38:45;21.15;;;11.93;;
45077;SDS011;60508;42.622;25.416;2023-02-28T13:44:12;22.27;;;11.73;;
45077;SDS011;60508;42.622;25.416;2023-02-28T13:52:11;18.65;;;13.18;;
45077;SDS011;60508;42.622;25.416;2023-02-28T14:03:37;27.65;;;14.65;;
45077;SDS011;60508;42.622;25.416;2023-02-28T14:06:17;23.55;;;11.98;;
45077;SDS011;60508;42.622;25.416;2023-02-28T14:08:57;18.85;;;11.60;;
45077;SDS011;60508;42.622;25.416;2023-02-28T14:11:30;15.60;;;11.77;;
45077;SDS011;60508;42.622;25.416;2023-02-28T14:13:59;26.48;;;12.75;;
45077;SDS011;60508;42.622;25.416;2023-02-28T14:16:27;19.63;;;12.68;;
45077;SDS011;60508;42.622;25.416;2023-02-28T14:19:26;25.48;;;17.92;;
45077;SDS011;60508;42.622;25.416;2023-02-28T14:25:16;22.88;;;12.80;;
45077;SDS011;60508;42.622;25.416;2023-02-28T14:28:24;31.77;;;15.57;;
45077;SDS011;60508;42.622;25.416;2023-02-28T14:33:26;19.25;;;12.60;;
45077;SDS011;60508;42.622;25.416;2023-02-28T14:41:42;23.85;;;12.32;;
45077;SDS011;60508;42.622;25.416;2023-02-28T14:46:46;27.02;;;13.70;;
45077;SDS011;60508;42.622;25.416;2023-02-28T14:49:41;34.00;;;15.23;;
45077;SDS011;60508;42.622;25.416;2023-02-28T14:52:13;21.10;;;14.70;;
45077;SDS011;60508;42.622;25.416;2023-02-28T14:54:42;28.08;;;15.45;;
45077;SDS011;60508;42.622;25.416;2023-02-28T14:57:26;22.35;;;15.50;;
45077;SDS011;60508;42.622;25.416;2023-02-28T15:00:02;25.40;;;16.08;;
45077;SDS011;60508;42.622;25.416;2023-02-28T15:02:37;25.48;;;16.35;;
45077;SDS011;60508;42.622;25.416;2023-02-28T15:07:46;40.08;;;19.67;;
45077;SDS011;60508;42.622;25.416;2023-02-28T15:12:49;22.50;;;13.52;;
45077;SDS011;60508;42.622;25.416;2023-02-28T15:15:25;25.77;;;15.43;;
45077;SDS011;60508;42.622;25.416;2023-02-28T15:17:58;32.25;;;15.15;;
45077;SDS011;60508;42.622;25.416;2023-02-28T15:20:26;23.17;;;15.65;;
45077;SDS011;60508;42.622;25.416;2023-02-28T15:22:52;32.55;;;15.13;;
45077;SDS011;60508;42.622;25.416;2023-02-28T15:25:21;30.13;;;14.90;;
45077;SDS011;60508;42.622;25.416;2023-02-28T15:27:57;21.55;;;15.07;;
45077;SDS011;60508;42.622;25.416;2023-02-28T15:30:28;24.98;;;15.20;;
45077;SDS011;60508;42.622;25.416;2023-02-28T15:35:37;30.25;;;15.43;;
45077;SDS011;60508;42.622;25.416;2023-02-28T15:38:17;24.83;;;14.30;;
45077;SDS011;60508;42.622;25.416;2023-02-28T15:40:50;26.15;;;14.98;;
45077;SDS011;60508;42.622;25.416;2023-02-28T15:43:34;25.13;;;15.02;;
45077;SDS011;60508;42.622;25.416;2023-02-28T15:46:09;38.58;;;15.30;;
45077;SDS011;60508;42.622;25.416;2023-02-28T15:48:45;34.53;;;15.82;;
45077;SDS011;60508;42.622;25.416;2023-02-28T15:51:22;26.02;;;15.52;;
45077;SDS011;60508;42.622;25.416;2023-02-28T15:53:58;31.95;;;16.80;;
45077;SDS011;60508;42.622;25.416;2023-02-28T15:56:28;39.10;;;19.08;;
45077;SDS011;60508;42.622;25.416;2023-02-28T15:58:58;27.65;;;16.85;;
45077;SDS011;60508;42.622;25.416;2023-02-28T16:01:27;26.42;;;16.88;;
45077;SDS011;60508;42.622;25.416;2023-02-28T16:03:57;24.92;;;15.80;;
45077;SDS011;60508;42.622;25.416;2023-02-28T16:09:24;25.88;;;17.73;;
45077;SDS011;60508;42.622;25.416;2023-02-28T16:11:50;28.65;;;15.93;;
45077;SDS011;60508;42.622;25.416;2023-02-28T16:14:20;27.42;;;15.57;;
45077;SDS011;60508;42.622;25.416;2023-02-28T16:19:17;26.13;;;15.73;;
45077;SDS011;60508;42.622;25.416;2023-02-28T16:21:44;23.27;;;14.95;;
45077;SDS011;60508;42.622;25.416;2023-02-28T16:24:10;26.25;;;15.35;;
45077;SDS011;60508;42.622;25.416;2023-02-28T16:26:36;31.80;;;13.77;;
45077;SDS011;60508;42.622;25.416;2023-02-28T16:29:05;23.48;;;14.88;;
45077;SDS011;60508;42.622;25.416;2023-02-28T16:31:33;28.73;;;13.73;;
45077;SDS011;60508;42.622;25.416;2023-02-28T16:34:02;28.63;;;13.38;;
45077;SDS011;60508;42.622;25.416;2023-02-28T16:36:29;20.45;;;13.00;;
45077;SDS011;60508;42.622;25.416;2023-02-28T16:38:56;26.85;;;15.50;;
45077;SDS011;60508;42.622;25.416;2023-02-28T16:41:24;27.23;;;13.77;;
45077;SDS011;60508;42.622;25.416;2023-02-28T16:43:53;23.10;;;13.43;;
45077;SDS011;60508;42.622;25.416;2023-02-28T16:46:33;27.60;;;18.33;;
45077;SDS011;60508;42.622;25.416;2023-02-28T16:49:00;30.25;;;17.33;;
45077;SDS011;60508;42.622;25.416;2023-02-28T16:51:26;29.90;;;16.48;;
45077;SDS011;60508;42.622;25.416;2023-02-28T16:53:53;21.70;;;13.13;;
45077;SDS011;60508;42.622;25.416;2023-02-28T16:56:20;21.75;;;12.52;;
45077;SDS011;60508;42.622;25.416;2023-02-28T16:58:48;22.00;;;12.07;;
45077;SDS011;60508;42.622;25.416;2023-02-28T17:01:15;18.52;;;12.10;;
45077;SDS011;60508;42.622;25.416;2023-02-28T17:03:42;23.55;;;12.75;;
45077;SDS011;60508;42.622;25.416;2023-02-28T17:06:14;24.48;;;15.63;;
45077;SDS011;60508;42.622;25.416;2023-02-28T17:08:43;29.23;;;16.00;;
45077;SDS011;60508;42.622;25.416;2023-02-28T17:11:09;19.00;;;11.63;;
45077;SDS011;60508;42.622;25.416;2023-02-28T17:13:35;17.15;;;11.43;;
45077;SDS011;60508;42.622;25.416;2023-02-28T17:16:02;18.65;;;11.45;;
45077;SDS011;60508;42.622;25.416;2023-02-28T17:18:28;19.23;;;12.90;;
45077;SDS011;60508;42.622;25.416;2023-02-28T17:21:00;21.73;;;10.82;;
45077;SDS011;60508;42.622;25.416;2023-02-28T17:23:26;25.25;;;11.80;;
45077;SDS011;60508;42.622;25.416;2023-02-28T17:25:52;13.27;;;9.43;;
45077;SDS011;60508;42.622;25.416;2023-02-28T17:30:48;21.92;;;11.25;;
45077;SDS011;60508;42.622;25.416;2023-02-28T17:33:14;18.17;;;12.23;;
45077;SDS011;60508;42.622;25.416;2023-02-28T17:35:41;14.68;;;10.60;;
45077;SDS011;60508;42.622;25.416;2023-02-28T17:38:12;16.88;;;10.70;;
45077;SDS011;60508;42.622;25.416;2023-02-28T17:40:41;17.42;;;10.60;;
45077;SDS011;60508;42.622;25.416;2023-02-28T17:43:07;24.63;;;14.55;;